sensor_id;sensor_type;location;lat;lon;timestamp;pressure;altitude;pressure_sealevel;temperature;humidity
48204;BME280;33994;50.998;5.864;2023-02-01T00:02:24;101660.00;;;5.09;96.03
48204;BME280;33994;50.998;5.864;2023-02-01T00:05:27;101664.34;;;5.09;95.79
48204;BME280;33994;50.998;5.864;2023-02-01T00:08:30;101658.28;;;5.10;95.26
48204;BME280;33994;50.998;5.864;2023-02-01T00:11:34;101667.78;;;5.09;95.33
48204;BME280;33994;50.998;5.864;2023-02-01T00:14:37;101662.69;;;5.13;95.11
48204;BME280;33994;50.998;5.864;2023-02-01T00:17:41;101673.91;;;5.13;95.49
48204;BME280;33994;50.998;5.864;2023-02-01T00:20:45;101670.53;;;5.16;95.21
48204;BME280;33994;50.998;5.864;2023-02-01T00:23:48;101658.41;;;5.15;95.36
48204;BME280;33994;50.998;5.864;2023-02-01T00:26:51;101664.47;;;5.15;95.13
48204;BME280;33994;50.998;5.864;2023-02-01T00:29:55;101669.59;;;5.14;95.13
48204;BME280;33994;50.998;5.864;2023-02-01T00:32:59;101652.31;;;5.13;94.79
48204;BME280;33994;50.998;5.864;2023-02-01T00:36:04;101657.50;;;5.13;94.76
48204;BME280;33994;50.998;5.864;2023-02-01T00:39:07;101647.03;;;5.09;94.75
48204;BME280;33994;50.998;5.864;2023-02-01T00:42:10;101653.06;;;5.07;94.49
48204;BME280;33994;50.998;5.864;2023-02-01T00:45:13;101640.91;;;5.04;94.20
48204;BME280;33994;50.998;5.864;2023-02-01T00:48:17;101631.31;;;5.00;94.25
48204;BME280;33994;50.998;5.864;2023-02-01T00:51:22;101611.38;;;4.98;94.25
48204;BME280;33994;50.998;5.864;2023-02-01T00:54:25;101600.06;;;4.94;94.11
48204;BME280;33994;50.998;5.864;2023-02-01T00:57:28;101581.03;;;4.92;94.42
48204;BME280;33994;50.998;5.864;2023-02-01T01:00:31;101581.81;;;4.91;94.30
48204;BME280;33994;50.998;5.864;2023-02-01T01:03:38;101594.78;;;4.91;94.33
48204;BME280;33994;50.998;5.864;2023-02-01T01:06:41;101595.63;;;4.90;94.59
48204;BME280;33994;50.998;5.864;2023-02-01T01:09:45;101584.41;;;4.91;94.91
48204;BME280;33994;50.998;5.864;2023-02-01T01:12:48;101580.94;;;4.91;94.94
48204;BME280;33994;50.998;5.864;2023-02-01T01:15:51;101597.38;;;4.91;94.84
48204;BME280;33994;50.998;5.864;2023-02-01T01:18:56;101610.34;;;4.91;94.95
48204;BME280;33994;50.998;5.864;2023-02-01T01:21:59;101627.69;;;4.92;95.34
48204;BME280;33994;50.998;5.864;2023-02-01T01:25:03;101632.03;;;4.95;95.82
48204;BME280;33994;50.998;5.864;2023-02-01T01:28:07;101634.69;;;4.96;96.21
48204;BME280;33994;50.998;5.864;2023-02-01T01:31:10;101631.25;;;4.97;96.79
48204;BME280;33994;50.998;5.864;2023-02-01T01:34:15;101614.03;;;4.99;97.10
48204;BME280;33994;50.998;5.864;2023-02-01T01:37:18;101614.91;;;5.01;97.56
48204;BME280;33994;50.998;5.864;2023-02-01T01:40:21;101613.25;;;5.05;98.11
48204;BME280;33994;50.998;5.864;2023-02-01T01:43:24;101610.66;;;5.03;98.52
48204;BME280;33994;50.998;5.864;2023-02-01T01:46:29;101601.16;;;5.04;98.31
48204;BME280;33994;50.998;5.864;2023-02-01T01:49:34;101603.75;;;5.05;98.42
48204;BME280;33994;50.998;5.864;2023-02-01T01:52:38;101615.88;;;5.06;98.56
48204;BME280;33994;50.998;5.864;2023-02-01T01:55:43;101613.34;;;5.09;98.12
48204;BME280;33994;50.998;5.864;2023-02-01T01:58:48;101604.69;;;5.09;97.94
48204;BME280;33994;50.998;5.864;2023-02-01T02:01:52;101603.88;;;5.12;97.44
48204;BME280;33994;50.998;5.864;2023-02-01T02:04:57;101607.38;;;5.14;97.28
48204;BME280;33994;50.998;5.864;2023-02-01T02:08:00;101609.97;;;5.14;96.86
48204;BME280;33994;50.998;5.864;2023-02-01T02:11:03;101608.22;;;5.13;96.96
48204;BME280;33994;50.998;5.864;2023-02-01T02:14:09;101607.38;;;5.14;96.41
48204;BME280;33994;50.998;5.864;2023-02-01T02:17:29;101615.16;;;5.14;96.20
48204;BME280;33994;50.998;5.864;2023-02-01T02:20:50;101616.00;;;5.13;96.18
48204;BME280;33994;50.998;5.864;2023-02-01T02:24:33;101610.84;;;5.14;96.35
48204;BME280;33994;50.998;5.864;2023-02-01T02:27:50;101622.94;;;5.14;96.15
48204;BME280;33994;50.998;5.864;2023-02-01T02:31:22;101629.81;;;5.12;96.55
48204;BME280;33994;50.998;5.864;2023-02-01T02:34:31;101616.00;;;5.13;96.35
48204;BME280;33994;50.998;5.864;2023-02-01T02:37:40;101616.00;;;5.13;96.14
48204;BME280;33994;50.998;5.864;2023-02-01T02:40:48;101620.34;;;5.14;96.16
48204;BME280;33994;50.998;5.864;2023-02-01T02:43:56;101608.25;;;5.14;95.90
48204;BME280;33994;50.998;5.864;2023-02-01T02:47:05;101604.75;;;5.10;95.45
48204;BME280;33994;50.998;5.864;2023-02-01T02:50:18;101597.84;;;5.11;95.06
48204;BME280;33994;50.998;5.864;2023-02-01T02:53:31;101603.88;;;5.12;94.65
48204;BME280;33994;50.998;5.864;2023-02-01T02:56:37;101592.56;;;5.08;94.09
48204;BME280;33994;50.998;5.864;2023-02-01T02:59:43;101591.63;;;5.04;94.32
48204;BME280;33994;50.998;5.864;2023-02-01T03:02:48;101599.41;;;5.04;93.72
48204;BME280;33994;50.998;5.864;2023-02-01T03:05:53;101597.63;;;5.00;93.48
48204;BME280;33994;50.998;5.864;2023-02-01T03:08:58;101592.38;;;4.99;93.43
48204;BME280;33994;50.998;5.864;2023-02-01T03:12:07;101588.84;;;4.95;92.98
48204;BME280;33994;50.998;5.864;2023-02-01T03:15:12;101581.06;;;4.94;92.88
48204;BME280;33994;50.998;5.864;2023-02-01T03:18:20;101582.78;;;4.93;92.49
48204;BME280;33994;50.998;5.864;2023-02-01T03:21:28;101586.22;;;4.92;92.79
48204;BME280;33994;50.998;5.864;2023-02-01T03:24:37;101581.81;;;4.90;92.47
48204;BME280;33994;50.998;5.864;2023-02-01T03:27:42;101576.63;;;4.90;92.32
48204;BME280;33994;50.998;5.864;2023-02-01T03:30:48;101563.63;;;4.88;92.09
48204;BME280;33994;50.998;5.864;2023-02-01T03:33:52;101568.81;;;4.88;91.98
48204;BME280;33994;50.998;5.864;2023-02-01T03:36:59;101568.81;;;4.88;91.86
48204;BME280;33994;50.998;5.864;2023-02-01T03:40:06;101562.69;;;4.84;91.83
48204;BME280;33994;50.998;5.864;2023-02-01T03:43:13;101568.75;;;4.85;91.63
48204;BME280;33994;50.998;5.864;2023-02-01T03:46:22;101573.00;;;4.83;91.15
48204;BME280;33994;50.998;5.864;2023-02-01T03:49:28;101567.00;;;4.84;90.88
48204;BME280;33994;50.998;5.864;2023-02-01T03:52:38;101559.13;;;4.79;90.38
48204;BME280;33994;50.998;5.864;2023-02-01T03:55:43;101569.53;;;4.81;90.39
48204;BME280;33994;50.998;5.864;2023-02-01T03:58:46;101569.47;;;4.78;89.69
48204;BME280;33994;50.998;5.864;2023-02-01T04:01:49;101572.06;;;4.78;89.45
48204;BME280;33994;50.998;5.864;2023-02-01T04:04:53;101581.50;;;4.76;89.35
48204;BME280;33994;50.998;5.864;2023-02-01T04:07:57;101583.22;;;4.75;88.85
48204;BME280;33994;50.998;5.864;2023-02-01T04:11:01;101591.88;;;4.76;88.77
48204;BME280;33994;50.998;5.864;2023-02-01T04:14:04;101582.34;;;4.75;88.52
48204;BME280;33994;50.998;5.864;2023-02-01T04:17:06;101585.00;;;4.76;88.18
48204;BME280;33994;50.998;5.864;2023-02-01T04:20:10;101591.94;;;4.79;87.74
48204;BME280;33994;50.998;5.864;2023-02-01T04:23:15;101586.75;;;4.79;87.54
48204;BME280;33994;50.998;5.864;2023-02-01T04:26:18;101592.88;;;4.81;87.07
48204;BME280;33994;50.998;5.864;2023-02-01T04:29:21;101585.03;;;4.78;86.82
48204;BME280;33994;50.998;5.864;2023-02-01T04:32:24;101589.41;;;4.82;86.43
48204;BME280;33994;50.998;5.864;2023-02-01T04:35:27;101584.25;;;4.82;86.02
48204;BME280;33994;50.998;5.864;2023-02-01T04:38:32;101585.16;;;4.84;85.87
48204;BME280;33994;50.998;5.864;2023-02-01T04:41:35;101577.38;;;4.84;86.01
48204;BME280;33994;50.998;5.864;2023-02-01T04:44:38;101575.59;;;4.81;85.87
48204;BME280;33994;50.998;5.864;2023-02-01T04:47:41;101561.69;;;4.76;85.66
48204;BME280;33994;50.998;5.864;2023-02-01T04:50:45;101555.56;;;4.74;85.57
48204;BME280;33994;50.998;5.864;2023-02-01T04:53:49;101548.59;;;4.72;85.32
48204;BME280;33994;50.998;5.864;2023-02-01T04:56:52;101555.41;;;4.67;85.56
48204;BME280;33994;50.998;5.864;2023-02-01T04:59:55;101551.09;;;4.66;85.62
48204;BME280;33994;50.998;5.864;2023-02-01T05:02:58;101547.50;;;4.60;85.34
48204;BME280;33994;50.998;5.864;2023-02-01T05:06:02;101561.28;;;4.58;85.24
48204;BME280;33994;50.998;5.864;2023-02-01T05:09:06;101562.94;;;4.56;85.34
48204;BME280;33994;50.998;5.864;2023-02-01T05:12:09;101569.84;;;4.55;85.41
48204;BME280;33994;50.998;5.864;2023-02-01T05:15:13;101566.38;;;4.53;85.49
48204;BME280;33994;50.998;5.864;2023-02-01T05:18:16;101559.47;;;4.54;85.25
48204;BME280;33994;50.998;5.864;2023-02-01T05:21:20;101566.31;;;4.50;85.66
48204;BME280;33994;50.998;5.864;2023-02-01T05:24:24;101562.78;;;4.48;85.64
48204;BME280;33994;50.998;5.864;2023-02-01T05:27:29;101552.34;;;4.45;85.52
48204;BME280;33994;50.998;5.864;2023-02-01T05:30:32;101566.16;;;4.44;85.83
48204;BME280;33994;50.998;5.864;2023-02-01T05:33:36;101564.44;;;4.45;85.67
48204;BME280;33994;50.998;5.864;2023-02-01T05:36:39;101568.75;;;4.44;85.66
48204;BME280;33994;50.998;5.864;2023-02-01T05:39:43;101575.63;;;4.42;85.90
48204;BME280;33994;50.998;5.864;2023-02-01T05:42:46;101569.53;;;4.40;85.89
48204;BME280;33994;50.998;5.864;2023-02-01T05:45:52;101574.69;;;4.40;85.92
48204;BME280;33994;50.998;5.864;2023-02-01T05:48:55;101566.03;;;4.38;85.90
48204;BME280;33994;50.998;5.864;2023-02-01T05:51:58;101556.47;;;4.35;85.96
48204;BME280;33994;50.998;5.864;2023-02-01T05:55:04;101554.69;;;4.33;86.11
48204;BME280;33994;50.998;5.864;2023-02-01T05:58:07;101557.28;;;4.33;86.17
48204;BME280;33994;50.998;5.864;2023-02-01T06:01:11;101549.47;;;4.31;86.02
48204;BME280;33994;50.998;5.864;2023-02-01T06:04:14;101553.78;;;4.31;86.18
48204;BME280;33994;50.998;5.864;2023-02-01T06:07:17;101566.69;;;4.29;86.13
48204;BME280;33994;50.998;5.864;2023-02-01T06:10:22;101559.75;;;4.28;86.20
48204;BME280;33994;50.998;5.864;2023-02-01T06:13:25;101559.75;;;4.27;86.34
48204;BME280;33994;50.998;5.864;2023-02-01T06:16:29;101562.34;;;4.27;86.35
48204;BME280;33994;50.998;5.864;2023-02-01T06:19:32;101556.25;;;4.26;86.28
48204;BME280;33994;50.998;5.864;2023-02-01T06:22:35;101566.59;;;4.26;86.37
48204;BME280;33994;50.998;5.864;2023-02-01T06:25:39;101573.47;;;4.24;86.28
48204;BME280;33994;50.998;5.864;2023-02-01T06:28:42;101578.69;;;4.26;86.34
48204;BME280;33994;50.998;5.864;2023-02-01T06:31:45;101583.91;;;4.27;86.49
48204;BME280;33994;50.998;5.864;2023-02-01T06:34:48;101579.59;;;4.28;86.56
48204;BME280;33994;50.998;5.864;2023-02-01T06:37:51;101587.38;;;4.28;86.33
48204;BME280;33994;50.998;5.864;2023-02-01T06:40:57;101592.56;;;4.28;86.32
48204;BME280;33994;50.998;5.864;2023-02-01T06:44:00;101601.19;;;4.28;86.33
48204;BME280;33994;50.998;5.864;2023-02-01T06:47:04;101602.91;;;4.28;86.37
48204;BME280;33994;50.998;5.864;2023-02-01T06:50:08;101604.56;;;4.26;86.58
48204;BME280;33994;50.998;5.864;2023-02-01T06:53:11;101601.94;;;4.23;86.60
48204;BME280;33994;50.998;5.864;2023-02-01T06:56:15;101606.22;;;4.22;86.44
48204;BME280;33994;50.998;5.864;2023-02-01T06:59:18;101602.75;;;4.22;86.40
48204;BME280;33994;50.998;5.864;2023-02-01T07:02:21;101607.91;;;4.20;86.76
48204;BME280;33994;50.998;5.864;2023-02-01T07:05:24;101610.44;;;4.19;86.68
48204;BME280;33994;50.998;5.864;2023-02-01T07:08:28;101608.59;;;4.13;86.67
48204;BME280;33994;50.998;5.864;2023-02-01T07:11:33;101617.25;;;4.13;86.60
48204;BME280;33994;50.998;5.864;2023-02-01T07:14:35;101619.81;;;4.12;86.92
48204;BME280;33994;50.998;5.864;2023-02-01T07:17:39;101625.88;;;4.14;87.00
48204;BME280;33994;50.998;5.864;2023-02-01T07:20:42;101628.56;;;4.17;86.70
48204;BME280;33994;50.998;5.864;2023-02-01T07:23:45;101632.94;;;4.20;87.03
48204;BME280;33994;50.998;5.864;2023-02-01T07:26:50;101622.59;;;4.21;86.95
48204;BME280;33994;50.998;5.864;2023-02-01T07:29:53;101622.66;;;4.23;86.99
48204;BME280;33994;50.998;5.864;2023-02-01T07:32:56;101613.19;;;4.25;86.97
48204;BME280;33994;50.998;5.864;2023-02-01T07:36:00;101620.09;;;4.24;87.21
48204;BME280;33994;50.998;5.864;2023-02-01T07:39:04;101620.88;;;4.22;87.33
48204;BME280;33994;50.998;5.864;2023-02-01T07:42:09;101624.31;;;4.21;86.94
48204;BME280;33994;50.998;5.864;2023-02-01T07:45:12;101615.72;;;4.22;87.11
48204;BME280;33994;50.998;5.864;2023-02-01T07:48:15;101605.34;;;4.22;86.80
48204;BME280;33994;50.998;5.864;2023-02-01T07:51:18;101595.75;;;4.16;87.03
48204;BME280;33994;50.998;5.864;2023-02-01T07:54:21;101599.97;;;4.12;86.94
48204;BME280;33994;50.998;5.864;2023-02-01T07:57:25;101608.50;;;4.08;87.05
48204;BME280;33994;50.998;5.864;2023-02-01T08:00:28;101606.72;;;4.07;87.10
48204;BME280;33994;50.998;5.864;2023-02-01T08:03:31;101614.47;;;4.06;87.33
48204;BME280;33994;50.998;5.864;2023-02-01T08:06:34;101612.75;;;4.06;87.42
48204;BME280;33994;50.998;5.864;2023-02-01T08:09:37;101619.66;;;4.07;87.34
48204;BME280;33994;50.998;5.864;2023-02-01T08:12:41;101625.84;;;4.12;87.41
48204;BME280;33994;50.998;5.864;2023-02-01T08:15:44;101631.13;;;4.16;87.43
48204;BME280;33994;50.998;5.864;2023-02-01T08:18:48;101628.47;;;4.14;87.30
48204;BME280;33994;50.998;5.864;2023-02-01T08:21:51;101625.97;;;4.17;87.23
48204;BME280;33994;50.998;5.864;2023-02-01T08:24:54;101626.00;;;4.19;87.24
48204;BME280;33994;50.998;5.864;2023-02-01T08:27:58;101638.13;;;4.20;87.04
48204;BME280;33994;50.998;5.864;2023-02-01T08:31:04;101643.38;;;4.23;87.08
48204;BME280;33994;50.998;5.864;2023-02-01T08:34:08;101638.31;;;4.27;87.01
48204;BME280;33994;50.998;5.864;2023-02-01T08:37:10;101643.50;;;4.29;87.03
48204;BME280;33994;50.998;5.864;2023-02-01T08:40:14;101651.34;;;4.32;87.14
48204;BME280;33994;50.998;5.864;2023-02-01T08:43:19;101644.44;;;4.31;86.77
48204;BME280;33994;50.998;5.864;2023-02-01T08:46:22;101650.47;;;4.31;87.01
48204;BME280;33994;50.998;5.864;2023-02-01T08:49:25;101657.44;;;4.34;87.01
48204;BME280;33994;50.998;5.864;2023-02-01T08:52:29;101654.03;;;4.36;86.81
48204;BME280;33994;50.998;5.864;2023-02-01T08:55:32;101658.44;;;4.39;86.71
48204;BME280;33994;50.998;5.864;2023-02-01T08:58:36;101651.56;;;4.41;86.65
48204;BME280;33994;50.998;5.864;2023-02-01T09:01:39;101653.34;;;4.44;86.65
48204;BME280;33994;50.998;5.864;2023-02-01T09:04:42;101647.38;;;4.46;86.57
48204;BME280;33994;50.998;5.864;2023-02-01T09:07:45;101645.75;;;4.51;86.44
48204;BME280;33994;50.998;5.864;2023-02-01T09:10:48;101645.84;;;4.54;86.22
48204;BME280;33994;50.998;5.864;2023-02-01T09:13:53;101655.44;;;4.58;86.31
48204;BME280;33994;50.998;5.864;2023-02-01T09:16:56;101647.72;;;4.61;86.22
48204;BME280;33994;50.998;5.864;2023-02-01T09:19:59;101652.16;;;4.67;86.12
48204;BME280;33994;50.998;5.864;2023-02-01T09:23:02;101658.28;;;4.71;86.10
48204;BME280;33994;50.998;5.864;2023-02-01T09:26:05;101649.66;;;4.72;85.91
48204;BME280;33994;50.998;5.864;2023-02-01T09:29:10;101649.75;;;4.75;85.74
48204;BME280;33994;50.998;5.864;2023-02-01T09:32:13;101633.38;;;4.77;85.76
48204;BME280;33994;50.998;5.864;2023-02-01T09:35:16;101621.31;;;4.79;85.75
48204;BME280;33994;50.998;5.864;2023-02-01T09:38:19;101622.25;;;4.83;85.71
48204;BME280;33994;50.998;5.864;2023-02-01T09:41:31;101620.59;;;4.85;85.58
48204;BME280;33994;50.998;5.864;2023-02-01T09:44:51;101614.78;;;4.95;85.79
48204;BME280;33994;50.998;5.864;2023-02-01T09:48:02;101605.56;;;5.09;85.22
48204;BME280;33994;50.998;5.864;2023-02-01T09:51:12;101612.38;;;5.04;84.75
48204;BME280;33994;50.998;5.864;2023-02-01T09:54:17;101616.75;;;5.07;84.73
48204;BME280;33994;50.998;5.864;2023-02-01T09:57:24;101614.22;;;5.10;84.63
48204;BME280;33994;50.998;5.864;2023-02-01T10:00:34;101623.13;;;5.23;84.96
48204;BME280;33994;50.998;5.864;2023-02-01T10:03:37;101614.72;;;5.36;84.55
48204;BME280;33994;50.998;5.864;2023-02-01T10:06:52;101611.53;;;5.49;83.82
48204;BME280;33994;50.998;5.864;2023-02-01T10:10:00;101613.22;;;5.47;83.05
48204;BME280;33994;50.998;5.864;2023-02-01T10:13:32;101615.72;;;5.43;83.01
48204;BME280;33994;50.998;5.864;2023-02-01T10:16:46;101624.34;;;5.42;83.46
48204;BME280;33994;50.998;5.864;2023-02-01T10:20:04;101630.41;;;5.42;83.27
48204;BME280;33994;50.998;5.864;2023-02-01T10:23:18;101616.66;;;5.46;83.38
48204;BME280;33994;50.998;5.864;2023-02-01T10:26:30;101627.91;;;5.48;83.21
48204;BME280;33994;50.998;5.864;2023-02-01T10:29:38;101621.94;;;5.52;83.05
48204;BME280;33994;50.998;5.864;2023-02-01T10:32:43;101615.19;;;5.61;82.71
48204;BME280;33994;50.998;5.864;2023-02-01T10:35:50;101616.13;;;5.64;82.65
48204;BME280;33994;50.998;5.864;2023-02-01T10:38:57;101613.53;;;5.64;82.33
48204;BME280;33994;50.998;5.864;2023-02-01T10:42:00;101619.59;;;5.66;82.35
48204;BME280;33994;50.998;5.864;2023-02-01T10:45:04;101617.06;;;5.69;82.62
48204;BME280;33994;50.998;5.864;2023-02-01T10:48:10;101613.66;;;5.72;82.33
48204;BME280;33994;50.998;5.864;2023-02-01T10:51:18;101622.34;;;5.74;82.01
48204;BME280;33994;50.998;5.864;2023-02-01T10:54:32;101610.28;;;5.77;81.67
48204;BME280;33994;50.998;5.864;2023-02-01T10:57:36;101603.44;;;5.81;81.98
48204;BME280;33994;50.998;5.864;2023-02-01T11:00:43;101620.00;;;5.88;81.59
48204;BME280;33994;50.998;5.864;2023-02-01T11:03:54;101603.56;;;5.90;81.04
48204;BME280;33994;50.998;5.864;2023-02-01T11:07:05;101604.53;;;5.95;80.83
48204;BME280;33994;50.998;5.864;2023-02-01T11:10:34;101619.34;;;6.01;80.37
48204;BME280;33994;50.998;5.864;2023-02-01T11:13:38;101622.00;;;6.05;80.57
48204;BME280;33994;50.998;5.864;2023-02-01T11:16:47;101610.81;;;6.09;80.38
48204;BME280;33994;50.998;5.864;2023-02-01T11:19:58;101603.13;;;6.14;80.40
48204;BME280;33994;50.998;5.864;2023-02-01T11:23:02;101589.34;;;6.20;80.36
48204;BME280;33994;50.998;5.864;2023-02-01T11:26:10;101586.84;;;6.26;80.02
48204;BME280;33994;50.998;5.864;2023-02-01T11:29:17;101588.69;;;6.33;80.00
48204;BME280;33994;50.998;5.864;2023-02-01T11:32:22;101585.28;;;6.37;79.40
48204;BME280;33994;50.998;5.864;2023-02-01T11:35:28;101572.31;;;6.40;78.64
48204;BME280;33994;50.998;5.864;2023-02-01T11:38:33;101563.69;;;6.43;78.23
48204;BME280;33994;50.998;5.864;2023-02-01T11:41:54;101551.56;;;6.42;77.87
48204;BME280;33994;50.998;5.864;2023-02-01T11:45:19;101552.47;;;6.45;77.19
48204;BME280;33994;50.998;5.864;2023-02-01T11:48:24;101561.13;;;6.47;76.60
48204;BME280;33994;50.998;5.864;2023-02-01T11:51:44;101556.88;;;6.51;76.23
48204;BME280;33994;50.998;5.864;2023-02-01T11:55:00;101550.84;;;6.53;76.33
48204;BME280;33994;50.998;5.864;2023-02-01T11:58:15;101564.75;;;6.55;76.08
48204;BME280;33994;50.998;5.864;2023-02-01T12:05:14;101538.84;;;6.65;75.79
48204;BME280;33994;50.998;5.864;2023-02-01T12:08:37;101520.75;;;6.72;75.75
48204;BME280;33994;50.998;5.864;2023-02-01T12:11:51;101545.94;;;6.78;75.29
48204;BME280;33994;50.998;5.864;2023-02-01T12:15:25;101529.56;;;6.84;75.20
48204;BME280;33994;50.998;5.864;2023-02-01T12:18:52;101521.72;;;6.82;75.35
48204;BME280;33994;50.998;5.864;2023-02-01T12:22:07;101521.72;;;6.82;75.30
48204;BME280;33994;50.998;5.864;2023-02-01T12:25:27;101517.34;;;6.78;75.21
48204;BME280;33994;50.998;5.864;2023-02-01T12:28:55;101516.47;;;6.76;75.05
48204;BME280;33994;50.998;5.864;2023-02-01T12:32:07;101517.28;;;6.73;75.05
48204;BME280;33994;50.998;5.864;2023-02-01T12:35:22;101512.97;;;6.74;75.06
48204;BME280;33994;50.998;5.864;2023-02-01T12:38:41;101534.66;;;6.76;75.30
48204;BME280;33994;50.998;5.864;2023-02-01T12:41:52;101511.25;;;6.76;75.24
48204;BME280;33994;50.998;5.864;2023-02-01T12:45:01;101515.63;;;6.78;74.95
48204;BME280;33994;50.998;5.864;2023-02-01T12:48:17;101520.84;;;6.81;75.07
48204;BME280;33994;50.998;5.864;2023-02-01T12:51:24;101499.19;;;6.81;75.08
48204;BME280;33994;50.998;5.864;2023-02-01T12:54:34;101508.75;;;6.84;75.01
48204;BME280;33994;50.998;5.864;2023-02-01T12:57:43;101507.03;;;6.84;74.79
48204;BME280;33994;50.998;5.864;2023-02-01T13:00:51;101507.03;;;6.86;74.49
48204;BME280;33994;50.998;5.864;2023-02-01T13:04:01;101506.16;;;6.85;74.24
48204;BME280;33994;50.998;5.864;2023-02-01T13:07:11;101508.75;;;6.85;73.65
48204;BME280;33994;50.998;5.864;2023-02-01T13:10:19;101492.31;;;6.86;73.43
48204;BME280;33994;50.998;5.864;2023-02-01T13:13:31;101499.22;;;6.86;73.34
48204;BME280;33994;50.998;5.864;2023-02-01T13:16:38;101502.72;;;6.86;73.46
48204;BME280;33994;50.998;5.864;2023-02-01T13:19:48;101494.06;;;6.87;73.24
48204;BME280;33994;50.998;5.864;2023-02-01T13:22:53;101494.06;;;6.87;72.80
48204;BME280;33994;50.998;5.864;2023-02-01T13:25:58;101492.34;;;6.89;73.18
48204;BME280;33994;50.998;5.864;2023-02-01T13:29:05;101488.00;;;6.88;73.16
48204;BME280;33994;50.998;5.864;2023-02-01T13:35:58;101478.50;;;6.90;72.83
48204;BME280;33994;50.998;5.864;2023-02-01T13:39:48;101487.16;;;6.92;72.87
48204;BME280;33994;50.998;5.864;2023-02-01T13:42:55;101481.09;;;6.92;72.83
48204;BME280;33994;50.998;5.864;2023-02-01T13:46:05;101486.31;;;6.92;73.13
48204;BME280;33994;50.998;5.864;2023-02-01T13:49:19;101483.72;;;6.93;73.03
48204;BME280;33994;50.998;5.864;2023-02-01T13:52:32;101488.91;;;6.93;72.97
48204;BME280;33994;50.998;5.864;2023-02-01T13:55:38;101491.50;;;6.93;72.79
48204;BME280;33994;50.998;5.864;2023-02-01T13:58:42;101493.28;;;6.94;72.97
48204;BME280;33994;50.998;5.864;2023-02-01T14:01:47;101489.81;;;6.94;72.88
48204;BME280;33994;50.998;5.864;2023-02-01T14:04:51;101495.88;;;6.96;73.27
48204;BME280;33994;50.998;5.864;2023-02-01T14:08:11;101492.41;;;6.95;72.92
48204;BME280;33994;50.998;5.864;2023-02-01T14:11:38;101501.94;;;6.96;72.88
48204;BME280;33994;50.998;5.864;2023-02-01T14:14:42;101496.78;;;6.98;73.03
48204;BME280;33994;50.998;5.864;2023-02-01T14:17:46;101491.59;;;6.98;73.05
48204;BME280;33994;50.998;5.864;2023-02-01T14:20:50;101484.69;;;7.01;72.95
48204;BME280;33994;50.998;5.864;2023-02-01T14:23:58;101491.63;;;7.04;73.03
48204;BME280;33994;50.998;5.864;2023-02-01T14:27:17;101478.66;;;7.05;72.51
48204;BME280;33994;50.998;5.864;2023-02-01T14:30:21;101498.59;;;7.06;72.55
48204;BME280;33994;50.998;5.864;2023-02-01T14:33:27;101502.97;;;7.11;72.51
48204;BME280;33994;50.998;5.864;2023-02-01T14:36:40;101491.69;;;7.12;71.83
48204;BME280;33994;50.998;5.864;2023-02-01T14:40:03;101509.94;;;7.15;71.88
48204;BME280;33994;50.998;5.864;2023-02-01T14:43:08;101510.81;;;7.15;72.15
48204;BME280;33994;50.998;5.864;2023-02-01T14:46:11;101516.88;;;7.16;72.11
48204;BME280;33994;50.998;5.864;2023-02-01T14:49:15;101525.56;;;7.16;72.04
48204;BME280;33994;50.998;5.864;2023-02-01T14:52:20;101520.38;;;7.18;72.11
48204;BME280;33994;50.998;5.864;2023-02-01T14:55:28;101519.53;;;7.19;72.15
48204;BME280;33994;50.998;5.864;2023-02-01T14:58:35;101523.00;;;7.18;71.71
48204;BME280;33994;50.998;5.864;2023-02-01T15:01:48;101526.50;;;7.21;71.83
48204;BME280;33994;50.998;5.864;2023-02-01T15:04:56;101532.56;;;7.22;71.96
48204;BME280;33994;50.998;5.864;2023-02-01T15:08:12;101515.16;;;7.16;72.06
48204;BME280;33994;50.998;5.864;2023-02-01T15:11:16;101536.00;;;7.18;72.94
48204;BME280;33994;50.998;5.864;2023-02-01T15:14:19;101529.91;;;7.16;73.05
48204;BME280;33994;50.998;5.864;2023-02-01T15:17:24;101532.50;;;7.16;73.74
48204;BME280;33994;50.998;5.864;2023-02-01T15:20:30;101532.47;;;7.13;73.76
48204;BME280;33994;50.998;5.864;2023-02-01T15:23:33;101535.97;;;7.13;74.01
48204;BME280;33994;50.998;5.864;2023-02-01T15:26:37;101540.25;;;7.10;74.04
48204;BME280;33994;50.998;5.864;2023-02-01T15:29:40;101540.25;;;7.11;74.17
48204;BME280;33994;50.998;5.864;2023-02-01T15:32:43;101546.31;;;7.12;74.21
48204;BME280;33994;50.998;5.864;2023-02-01T15:35:49;101537.66;;;7.10;74.30
48204;BME280;33994;50.998;5.864;2023-02-01T15:39:14;101547.19;;;7.09;74.47
48204;BME280;33994;50.998;5.864;2023-02-01T15:42:18;101539.34;;;7.07;74.73
48204;BME280;33994;50.998;5.864;2023-02-01T15:45:25;101537.63;;;7.06;75.20
48204;BME280;33994;50.998;5.864;2023-02-01T15:48:34;101539.34;;;7.06;75.24
48204;BME280;33994;50.998;5.864;2023-02-01T15:51:44;101536.72;;;7.04;75.68
48204;BME280;33994;50.998;5.864;2023-02-01T15:54:51;101537.56;;;7.03;75.94
48204;BME280;33994;50.998;5.864;2023-02-01T15:57:54;101549.72;;;7.01;75.98
48204;BME280;33994;50.998;5.864;2023-02-01T16:01:00;101552.28;;;7.00;76.20
48204;BME280;33994;50.998;5.864;2023-02-01T16:04:13;101560.06;;;6.98;76.16
48204;BME280;33994;50.998;5.864;2023-02-01T16:07:27;101563.53;;;7.00;76.53
48204;BME280;33994;50.998;5.864;2023-02-01T16:10:31;101561.81;;;6.99;76.91
48204;BME280;33994;50.998;5.864;2023-02-01T16:13:35;101558.31;;;6.97;77.21
48204;BME280;33994;50.998;5.864;2023-02-01T16:16:38;101566.94;;;6.93;77.57
48204;BME280;33994;50.998;5.864;2023-02-01T16:19:41;101584.28;;;6.94;78.03
48204;BME280;33994;50.998;5.864;2023-02-01T16:22:45;101572.97;;;6.91;78.38
48204;BME280;33994;50.998;5.864;2023-02-01T16:25:48;101565.13;;;6.88;78.38
48204;BME280;33994;50.998;5.864;2023-02-01T16:28:51;101575.50;;;6.85;78.86
48204;BME280;33994;50.998;5.864;2023-02-01T16:31:55;101585.03;;;6.86;78.50
48204;BME280;33994;50.998;5.864;2023-02-01T16:34:57;101580.69;;;6.83;78.64
48204;BME280;33994;50.998;5.864;2023-02-01T16:38:02;101567.66;;;6.81;78.73